sensor_id;sensor_type;location;lat;lon;timestamp;pressure;altitude;pressure_sealevel;temperature;humidity
48204;BME280;33994;50.998;5.864;2023-03-13T00:03:00;99886.06;;;9.34;90.93
48204;BME280;33994;50.998;5.864;2023-03-13T00:06:04;99886.94;;;9.35;91.07
48204;BME280;33994;50.998;5.864;2023-03-13T00:09:09;99866.06;;;9.35;91.12
48204;BME280;33994;50.998;5.864;2023-03-13T00:12:12;99864.25;;;9.37;91.12
48204;BME280;33994;50.998;5.864;2023-03-13T00:15:15;99852.88;;;9.39;90.93
48204;BME280;33994;50.998;5.864;2023-03-13T00:18:20;99846.72;;;9.42;90.93
48204;BME280;33994;50.998;5.864;2023-03-13T00:21:24;99845.78;;;9.44;90.88
48204;BME280;33994;50.998;5.864;2023-03-13T00:24:27;99837.94;;;9.46;90.91
48204;BME280;33994;50.998;5.864;2023-03-13T00:27:31;99832.59;;;9.49;90.66
48204;BME280;33994;50.998;5.864;2023-03-13T00:30:34;99826.44;;;9.52;90.53
48204;BME280;33994;50.998;5.864;2023-03-13T00:33:41;99819.44;;;9.54;90.69
48204;BME280;33994;50.998;5.864;2023-03-13T00:36:44;99823.72;;;9.56;90.47
48204;BME280;33994;50.998;5.864;2023-03-13T00:39:47;99812.34;;;9.59;90.66
48204;BME280;33994;50.998;5.864;2023-03-13T00:42:51;99814.06;;;9.60;91.32
48204;BME280;33994;50.998;5.864;2023-03-13T00:45:54;99807.06;;;9.60;92.46
48204;BME280;33994;50.998;5.864;2023-03-13T00:48:58;99803.59;;;9.60;94.27
48204;BME280;33994;50.998;5.864;2023-03-13T00:52:01;99801.13;;;9.55;95.39
48204;BME280;33994;50.998;5.864;2023-03-13T00:55:05;99778.69;;;9.49;96.98
48204;BME280;33994;50.998;5.864;2023-03-13T00:58:08;99776.22;;;9.43;98.46
48204;BME280;33994;50.998;5.864;2023-03-13T01:01:13;99773.69;;;9.40;99.80
48204;BME280;33994;50.998;5.864;2023-03-13T01:04:18;99773.81;;;9.36;100.00
48204;BME280;33994;50.998;5.864;2023-03-13T01:07:21;99765.16;;;9.34;100.00
48204;BME280;33994;50.998;5.864;2023-03-13T01:10:24;99771.34;;;9.31;100.00
48204;BME280;33994;50.998;5.864;2023-03-13T01:13:28;99760.00;;;9.32;100.00
48204;BME280;33994;50.998;5.864;2023-03-13T01:16:33;99751.31;;;9.30;100.00
48204;BME280;33994;50.998;5.864;2023-03-13T01:19:37;99748.72;;;9.30;100.00
48204;BME280;33994;50.998;5.864;2023-03-13T01:22:40;99747.03;;;9.29;100.00
48204;BME280;33994;50.998;5.864;2023-03-13T01:25:44;99735.72;;;9.29;100.00
48204;BME280;33994;50.998;5.864;2023-03-13T01:28:47;99725.25;;;9.30;100.00
48204;BME280;33994;50.998;5.864;2023-03-13T01:31:50;99724.38;;;9.31;100.00
48204;BME280;33994;50.998;5.864;2023-03-13T01:34:55;99720.84;;;9.32;100.00
48204;BME280;33994;50.998;5.864;2023-03-13T01:37:58;99716.47;;;9.34;100.00
48204;BME280;33994;50.998;5.864;2023-03-13T01:41:01;99708.63;;;9.34;100.00
48204;BME280;33994;50.998;5.864;2023-03-13T01:44:04;99693.81;;;9.35;100.00
48204;BME280;33994;50.998;5.864;2023-03-13T01:47:08;99685.16;;;9.33;100.00
48204;BME280;33994;50.998;5.864;2023-03-13T01:50:12;99692.16;;;9.32;100.00
48204;BME280;33994;50.998;5.864;2023-03-13T01:53:15;99693.06;;;9.31;100.00
48204;BME280;33994;50.998;5.864;2023-03-13T01:56:21;99679.94;;;9.33;100.00
48204;BME280;33994;50.998;5.864;2023-03-13T01:59:29;99682.63;;;9.31;100.00
48204;BME280;33994;50.998;5.864;2023-03-13T02:02:35;99673.88;;;9.32;100.00
48204;BME280;33994;50.998;5.864;2023-03-13T02:05:42;99677.31;;;9.34;100.00
48204;BME280;33994;50.998;5.864;2023-03-13T02:08:50;99672.97;;;9.33;100.00
48204;BME280;33994;50.998;5.864;2023-03-13T02:11:57;99675.50;;;9.36;100.00
48204;BME280;33994;50.998;5.864;2023-03-13T02:15:06;99659.84;;;9.36;100.00
48204;BME280;33994;50.998;5.864;2023-03-13T02:18:11;99656.31;;;9.37;100.00
48204;BME280;33994;50.998;5.864;2023-03-13T02:21:23;99655.44;;;9.38;100.00
48204;BME280;33994;50.998;5.864;2023-03-13T02:24:34;99650.13;;;9.41;100.00
48204;BME280;33994;50.998;5.864;2023-03-13T02:27:42;99641.34;;;9.44;100.00
48204;BME280;33994;50.998;5.864;2023-03-13T02:30:47;99624.75;;;9.46;100.00
48204;BME280;33994;50.998;5.864;2023-03-13T02:33:50;99608.19;;;9.47;100.00
48204;BME280;33994;50.998;5.864;2023-03-13T02:36:53;99602.91;;;9.49;100.00
48204;BME280;33994;50.998;5.864;2023-03-13T02:40:00;99591.53;;;9.52;100.00
48204;BME280;33994;50.998;5.864;2023-03-13T02:43:08;99589.75;;;9.54;100.00
48204;BME280;33994;50.998;5.864;2023-03-13T02:46:14;99577.50;;;9.56;100.00
48204;BME280;33994;50.998;5.864;2023-03-13T02:49:25;99583.53;;;9.58;100.00
48204;BME280;33994;50.998;5.864;2023-03-13T02:52:32;99581.78;;;9.58;100.00
48204;BME280;33994;50.998;5.864;2023-03-13T02:55:39;99593.91;;;9.61;100.00
48204;BME280;33994;50.998;5.864;2023-03-13T02:58:44;99579.88;;;9.63;100.00
48204;BME280;33994;50.998;5.864;2023-03-13T03:01:47;99586.75;;;9.66;100.00
48204;BME280;33994;50.998;5.864;2023-03-13T03:04:50;99578.03;;;9.67;100.00
48204;BME280;33994;50.998;5.864;2023-03-13T03:07:53;99567.44;;;9.71;100.00
48204;BME280;33994;50.998;5.864;2023-03-13T03:10:56;99570.03;;;9.71;100.00
48204;BME280;33994;50.998;5.864;2023-03-13T03:14:01;99583.00;;;9.74;100.00
48204;BME280;33994;50.998;5.864;2023-03-13T03:17:04;99572.47;;;9.78;100.00
48204;BME280;33994;50.998;5.864;2023-03-13T03:20:08;99564.56;;;9.79;100.00
48204;BME280;33994;50.998;5.864;2023-03-13T03:23:11;99555.81;;;9.82;100.00
48204;BME280;33994;50.998;5.864;2023-03-13T03:26:14;99560.13;;;9.83;100.00
48204;BME280;33994;50.998;5.864;2023-03-13T03:29:19;99558.25;;;9.86;100.00
48204;BME280;33994;50.998;5.864;2023-03-13T03:32:22;99557.34;;;9.87;100.00
48204;BME280;33994;50.998;5.864;2023-03-13T03:35:25;99559.09;;;9.88;100.00
48204;BME280;33994;50.998;5.864;2023-03-13T03:38:28;99559.94;;;9.89;100.00
48204;BME280;33994;50.998;5.864;2023-03-13T03:41:32;99565.91;;;9.92;100.00
48204;BME280;33994;50.998;5.864;2023-03-13T03:44:36;99565.00;;;9.93;100.00
48204;BME280;33994;50.998;5.864;2023-03-13T03:47:39;99564.06;;;9.96;100.00
48204;BME280;33994;50.998;5.864;2023-03-13T03:50:42;99558.78;;;9.97;100.00
48204;BME280;33994;50.998;5.864;2023-03-13T03:53:45;99552.63;;;9.98;100.00
48204;BME280;33994;50.998;5.864;2023-03-13T03:56:48;99556.97;;;10.00;100.00
48204;BME280;33994;50.998;5.864;2023-03-13T03:59:53;99549.94;;;10.02;100.00
48204;BME280;33994;50.998;5.864;2023-03-13T04:02:56;99546.41;;;10.03;100.00
48204;BME280;33994;50.998;5.864;2023-03-13T04:05:59;99551.53;;;10.06;100.00
48204;BME280;33994;50.998;5.864;2023-03-13T04:09:02;99541.91;;;10.08;100.00
48204;BME280;33994;50.998;5.864;2023-03-13T04:12:06;99547.06;;;10.09;100.00
48204;BME280;33994;50.998;5.864;2023-03-13T04:15:11;99539.13;;;10.12;100.00
48204;BME280;33994;50.998;5.864;2023-03-13T04:18:14;99535.50;;;10.16;100.00
48204;BME280;33994;50.998;5.864;2023-03-13T04:21:17;99538.78;;;10.23;100.00
48204;BME280;33994;50.998;5.864;2023-03-13T04:24:20;99530.84;;;10.26;100.00
48204;BME280;33994;50.998;5.864;2023-03-13T04:27:23;99532.38;;;10.32;100.00
48204;BME280;33994;50.998;5.864;2023-03-13T04:30:28;99537.50;;;10.35;100.00
48204;BME280;33994;50.998;5.864;2023-03-13T04:33:32;99529.59;;;10.36;100.00
48204;BME280;33994;50.998;5.864;2023-03-13T04:36:35;99522.47;;;10.41;100.00
48204;BME280;33994;50.998;5.864;2023-03-13T04:39:38;99518.00;;;10.45;100.00
48204;BME280;33994;50.998;5.864;2023-03-13T04:42:41;99520.53;;;10.46;100.00
48204;BME280;33994;50.998;5.864;2023-03-13T04:45:46;99496.09;;;10.47;100.00
48204;BME280;33994;50.998;5.864;2023-03-13T04:48:49;99485.53;;;10.51;100.00
48204;BME280;33994;50.998;5.864;2023-03-13T04:51:52;99474.97;;;10.54;100.00
48204;BME280;33994;50.998;5.864;2023-03-13T04:54:55;99472.34;;;10.54;100.00
48204;BME280;33994;50.998;5.864;2023-03-13T04:57:58;99476.66;;;10.55;100.00
48204;BME280;33994;50.998;5.864;2023-03-13T05:01:03;99471.34;;;10.58;100.00
48204;BME280;33994;50.998;5.864;2023-03-13T05:04:06;99467.81;;;10.59;100.00
48204;BME280;33994;50.998;5.864;2023-03-13T05:07:09;99468.63;;;10.61;100.00
48204;BME280;33994;50.998;5.864;2023-03-13T05:10:13;99451.09;;;10.63;100.00
48204;BME280;33994;50.998;5.864;2023-03-13T05:13:16;99452.75;;;10.65;100.00
48204;BME280;33994;50.998;5.864;2023-03-13T05:16:20;99451.81;;;10.68;100.00
48204;BME280;33994;50.998;5.864;2023-03-13T05:19:23;99457.03;;;10.68;100.00
48204;BME280;33994;50.998;5.864;2023-03-13T05:22:27;99463.00;;;10.71;100.00
48204;BME280;33994;50.998;5.864;2023-03-13T05:25:30;99480.31;;;10.74;100.00
48204;BME280;33994;50.998;5.864;2023-03-13T05:28:33;99466.28;;;10.77;100.00
48204;BME280;33994;50.998;5.864;2023-03-13T05:31:38;99460.13;;;10.78;100.00
48204;BME280;33994;50.998;5.864;2023-03-13T05:34:41;99471.34;;;10.81;100.00
48204;BME280;33994;50.998;5.864;2023-03-13T05:37:44;99469.56;;;10.82;100.00
48204;BME280;33994;50.998;5.864;2023-03-13T05:40:47;99477.34;;;10.85;100.00
48204;BME280;33994;50.998;5.864;2023-03-13T05:43:50;99482.50;;;10.86;100.00
48204;BME280;33994;50.998;5.864;2023-03-13T05:46:54;99471.16;;;10.87;100.00
48204;BME280;33994;50.998;5.864;2023-03-13T05:49:57;99477.16;;;10.89;100.00
48204;BME280;33994;50.998;5.864;2023-03-13T05:53:00;99486.66;;;10.92;100.00
48204;BME280;33994;50.998;5.864;2023-03-13T05:56:03;99482.28;;;10.92;100.00
48204;BME280;33994;50.998;5.864;2023-03-13T05:59:06;99477.91;;;10.93;100.00
48204;BME280;33994;50.998;5.864;2023-03-13T06:02:11;99478.75;;;10.93;100.00
48204;BME280;33994;50.998;5.864;2023-03-13T06:05:14;99481.31;;;10.95;100.00
48204;BME280;33994;50.998;5.864;2023-03-13T06:08:17;99497.88;;;10.95;100.00
48204;BME280;33994;50.998;5.864;2023-03-13T06:11:20;99474.25;;;10.97;100.00
48204;BME280;33994;50.998;5.864;2023-03-13T06:14:23;99474.16;;;11.00;100.00
48204;BME280;33994;50.998;5.864;2023-03-13T06:17:28;99478.41;;;11.03;100.00
48204;BME280;33994;50.998;5.864;2023-03-13T06:20:31;99477.50;;;11.04;100.00
48204;BME280;33994;50.998;5.864;2023-03-13T06:23:34;99487.03;;;11.05;100.00
48204;BME280;33994;50.998;5.864;2023-03-13T06:26:37;99490.59;;;11.04;100.00
48204;BME280;33994;50.998;5.864;2023-03-13T06:29:41;99490.38;;;11.10;100.00
48204;BME280;33994;50.998;5.864;2023-03-13T06:32:45;99481.59;;;11.11;100.00
48204;BME280;33994;50.998;5.864;2023-03-13T06:35:48;99491.09;;;11.13;100.00
48204;BME280;33994;50.998;5.864;2023-03-13T06:38:51;99478.78;;;11.15;100.00
48204;BME280;33994;50.998;5.864;2023-03-13T06:41:54;99476.00;;;11.20;100.00
48204;BME280;33994;50.998;5.864;2023-03-13T06:44:58;99473.19;;;11.25;100.00
48204;BME280;33994;50.998;5.864;2023-03-13T06:48:02;99459.22;;;11.26;100.00
48204;BME280;33994;50.998;5.864;2023-03-13T06:51:10;99468.66;;;11.30;100.00
48204;BME280;33994;50.998;5.864;2023-03-13T06:54:13;99458.91;;;11.33;100.00
48204;BME280;33994;50.998;5.864;2023-03-13T06:57:16;99457.88;;;11.37;99.46
48204;BME280;33994;50.998;5.864;2023-03-13T07:00:20;99456.88;;;11.40;98.65
48204;BME280;33994;50.998;5.864;2023-03-13T07:03:24;99452.38;;;11.43;98.05
48204;BME280;33994;50.998;5.864;2023-03-13T07:06:28;99445.31;;;11.46;97.84
48204;BME280;33994;50.998;5.864;2023-03-13T07:09:31;99436.44;;;11.50;97.27
48204;BME280;33994;50.998;5.864;2023-03-13T07:12:34;99444.94;;;11.55;96.67
48204;BME280;33994;50.998;5.864;2023-03-13T07:15:37;99441.34;;;11.57;96.28
48204;BME280;33994;50.998;5.864;2023-03-13T07:18:41;99440.31;;;11.61;95.91
48204;BME280;33994;50.998;5.864;2023-03-13T07:21:44;99433.38;;;11.60;95.23
48204;BME280;33994;50.998;5.864;2023-03-13T07:24:47;99429.84;;;11.61;95.14
48204;BME280;33994;50.998;5.864;2023-03-13T07:27:51;99443.72;;;11.63;94.68
48204;BME280;33994;50.998;5.864;2023-03-13T07:30:54;99434.94;;;11.64;94.45
48204;BME280;33994;50.998;5.864;2023-03-13T07:33:59;99442.72;;;11.66;94.07
48204;BME280;33994;50.998;5.864;2023-03-13T07:37:02;99432.34;;;11.64;93.96
48204;BME280;33994;50.998;5.864;2023-03-13T07:40:06;99444.47;;;11.67;93.74
48204;BME280;33994;50.998;5.864;2023-03-13T07:43:09;99440.91;;;11.68;93.44
48204;BME280;33994;50.998;5.864;2023-03-13T07:46:14;99446.88;;;11.72;93.39
48204;BME280;33994;50.998;5.864;2023-03-13T07:49:19;99443.66;;;11.65;93.22
48204;BME280;33994;50.998;5.864;2023-03-13T07:52:22;99433.84;;;11.70;93.46
48204;BME280;33994;50.998;5.864;2023-03-13T07:55:24;99435.56;;;11.71;93.56
48204;BME280;33994;50.998;5.864;2023-03-13T07:58:29;99452.03;;;11.73;93.43
48204;BME280;33994;50.998;5.864;2023-03-13T08:01:33;99444.91;;;11.77;93.52
48204;BME280;33994;50.998;5.864;2023-03-13T08:04:38;99450.09;;;11.78;93.39
48204;BME280;33994;50.998;5.864;2023-03-13T08:07:42;99439.56;;;11.80;93.46
48204;BME280;33994;50.998;5.864;2023-03-13T08:10:46;99442.09;;;11.81;93.44
48204;BME280;33994;50.998;5.864;2023-03-13T08:13:49;99441.13;;;11.84;93.27
48204;BME280;33994;50.998;5.864;2023-03-13T08:16:53;99440.00;;;11.89;93.27
48204;BME280;33994;50.998;5.864;2023-03-13T08:19:57;99431.25;;;11.90;93.39
48204;BME280;33994;50.998;5.864;2023-03-13T08:23:00;99428.69;;;11.89;93.59
48204;BME280;33994;50.998;5.864;2023-03-13T08:26:05;99427.78;;;11.90;93.83
48204;BME280;33994;50.998;5.864;2023-03-13T08:29:10;99422.47;;;11.91;94.04
48204;BME280;33994;50.998;5.864;2023-03-13T08:32:13;99412.72;;;11.95;93.91
48204;BME280;33994;50.998;5.864;2023-03-13T08:35:18;99418.53;;;12.02;93.88
48204;BME280;33994;50.998;5.864;2023-03-13T08:38:21;99418.38;;;12.05;93.80
48204;BME280;33994;50.998;5.864;2023-03-13T08:41:25;99423.38;;;12.11;94.20
48204;BME280;33994;50.998;5.864;2023-03-13T08:44:29;99413.59;;;12.14;93.93
48204;BME280;33994;50.998;5.864;2023-03-13T08:47:32;99410.66;;;12.22;93.80
48204;BME280;33994;50.998;5.864;2023-03-13T08:50:36;99404.25;;;12.29;93.65
48204;BME280;33994;50.998;5.864;2023-03-13T08:53:41;99391.78;;;12.34;93.37
48204;BME280;33994;50.998;5.864;2023-03-13T08:56:44;99395.00;;;12.41;93.15
48204;BME280;33994;50.998;5.864;2023-03-13T08:59:47;99392.00;;;12.49;92.63
48204;BME280;33994;50.998;5.864;2023-03-13T09:02:51;99392.59;;;12.55;92.83
48204;BME280;33994;50.998;5.864;2023-03-13T09:05:56;99399.53;;;12.56;94.00
48204;BME280;33994;50.998;5.864;2023-03-13T09:09:00;99394.16;;;12.59;94.35
48204;BME280;33994;50.998;5.864;2023-03-13T09:12:04;99396.69;;;12.61;94.34
48204;BME280;33994;50.998;5.864;2023-03-13T09:15:08;99387.00;;;12.63;93.94
48204;BME280;33994;50.998;5.864;2023-03-13T09:18:11;99391.03;;;12.70;93.92
48204;BME280;33994;50.998;5.864;2023-03-13T09:21:17;99386.44;;;12.75;93.72
48204;BME280;33994;50.998;5.864;2023-03-13T09:24:21;99379.13;;;12.82;93.91
48204;BME280;33994;50.998;5.864;2023-03-13T09:27:24;99376.19;;;12.88;93.40
48204;BME280;33994;50.998;5.864;2023-03-13T09:30:27;99382.94;;;12.94;93.01
48204;BME280;33994;50.998;5.864;2023-03-13T09:33:31;99358.03;;;13.02;92.64
48204;BME280;33994;50.998;5.864;2023-03-13T09:36:35;99371.47;;;13.13;91.89
48204;BME280;33994;50.998;5.864;2023-03-13T09:39:38;99377.06;;;13.25;91.04
48204;BME280;33994;50.998;5.864;2023-03-13T09:42:45;99368.94;;;13.29;90.62
48204;BME280;33994;50.998;5.864;2023-03-13T09:45:50;99369.50;;;13.36;90.09
48204;BME280;33994;50.998;5.864;2023-03-13T09:48:57;99357.84;;;13.42;89.70
48204;BME280;33994;50.998;5.864;2023-03-13T09:52:14;99348.03;;;13.45;89.36
48204;BME280;33994;50.998;5.864;2023-03-13T09:55:20;99355.69;;;13.50;89.13
48204;BME280;33994;50.998;5.864;2023-03-13T09:58:26;99354.84;;;13.49;88.84
48204;BME280;33994;50.998;5.864;2023-03-13T10:01:30;99353.78;;;13.53;89.12
48204;BME280;33994;50.998;5.864;2023-03-13T10:04:39;99343.91;;;13.58;89.16
48204;BME280;33994;50.998;5.864;2023-03-13T10:07:46;99348.91;;;13.63;88.98
48204;BME280;33994;50.998;5.864;2023-03-13T10:10:53;99339.16;;;13.65;88.82
48204;BME280;33994;50.998;5.864;2023-03-13T10:14:02;99331.06;;;13.70;88.79
48204;BME280;33994;50.998;5.864;2023-03-13T10:17:14;99327.41;;;13.72;88.54
48204;BME280;33994;50.998;5.864;2023-03-13T10:20:23;99332.69;;;13.72;88.44
48204;BME280;33994;50.998;5.864;2023-03-13T10:23:36;99319.63;;;13.71;88.13
48204;BME280;33994;50.998;5.864;2023-03-13T10:26:41;99313.28;;;13.75;88.10
48204;BME280;33994;50.998;5.864;2023-03-13T10:29:45;99313.28;;;13.75;87.57
48204;BME280;33994;50.998;5.864;2023-03-13T10:32:48;99303.47;;;13.78;87.46
48204;BME280;33994;50.998;5.864;2023-03-13T10:36:12;99309.31;;;13.83;86.41
48204;BME280;33994;50.998;5.864;2023-03-13T10:39:18;99286.19;;;13.90;86.45
48204;BME280;33994;50.998;5.864;2023-03-13T10:42:26;99285.09;;;13.94;86.30
48204;BME280;33994;50.998;5.864;2023-03-13T10:45:32;99272.66;;;13.98;85.84
48204;BME280;33994;50.998;5.864;2023-03-13T10:48:36;99270.81;;;14.00;85.72
48204;BME280;33994;50.998;5.864;2023-03-13T10:51:45;99270.88;;;13.98;84.84
48204;BME280;33994;50.998;5.864;2023-03-13T10:54:55;99259.25;;;14.02;84.10
48204;BME280;33994;50.998;5.864;2023-03-13T10:58:03;99254.78;;;14.04;83.15
48204;BME280;33994;50.998;5.864;2023-03-13T11:01:17;99246.81;;;14.06;82.83
48204;BME280;33994;50.998;5.864;2023-03-13T11:04:29;99245.69;;;14.10;81.86
48204;BME280;33994;50.998;5.864;2023-03-13T11:07:34;99220.94;;;14.14;81.56
48204;BME280;33994;50.998;5.864;2023-03-13T11:10:50;99236.47;;;14.19;80.89
48204;BME280;33994;50.998;5.864;2023-03-13T11:13:54;99231.22;;;14.19;81.06
48204;BME280;33994;50.998;5.864;2023-03-13T11:17:02;99230.19;;;14.21;80.89
48204;BME280;33994;50.998;5.864;2023-03-13T11:20:13;99230.19;;;14.21;80.89
48204;BME280;33994;50.998;5.864;2023-03-13T11:23:19;99213.47;;;14.70;79.89
48204;BME280;33994;50.998;5.864;2023-03-13T11:26:30;99219.81;;;15.12;77.18
48204;BME280;33994;50.998;5.864;2023-03-13T11:29:41;99218.00;;;15.12;76.89
48204;BME280;33994;50.998;5.864;2023-03-13T11:32:53;99223.72;;;15.04;77.41
48204;BME280;33994;50.998;5.864;2023-03-13T11:36:01;99230.41;;;14.96;78.01
48204;BME280;33994;50.998;5.864;2023-03-13T11:39:29;99218.69;;;14.86;78.05
48204;BME280;33994;50.998;5.864;2023-03-13T11:42:55;99212.47;;;14.72;77.99
48204;BME280;33994;50.998;5.864;2023-03-13T11:49:50;99208.69;;;14.60;78.67
48204;BME280;33994;50.998;5.864;2023-03-13T11:53:12;99195.63;;;14.59;78.97
48204;BME280;33994;50.998;5.864;2023-03-13T11:56:21;99184.00;;;14.63;79.38
48204;BME280;33994;50.998;5.864;2023-03-13T11:59:34;99182.19;;;14.64;79.12
48204;BME280;33994;50.998;5.864;2023-03-13T12:02:47;99183.91;;;14.65;79.01
48204;BME280;33994;50.998;5.864;2023-03-13T12:05:53;99145.38;;;14.64;79.24
48204;BME280;33994;50.998;5.864;2023-03-13T12:09:01;99171.69;;;14.64;78.71
48204;BME280;33994;50.998;5.864;2023-03-13T12:12:15;99164.06;;;14.59;78.62
48204;BME280;33994;50.998;5.864;2023-03-13T12:15:24;99157.69;;;14.63;78.82
48204;BME280;33994;50.998;5.864;2023-03-13T12:18:30;99162.00;;;14.64;79.23
48204;BME280;33994;50.998;5.864;2023-03-13T12:21:38;99148.81;;;14.66;79.51
48204;BME280;33994;50.998;5.864;2023-03-13T12:24:48;99151.16;;;14.70;78.79
48204;BME280;33994;50.998;5.864;2023-03-13T12:27:57;99134.19;;;14.76;77.88
48204;BME280;33994;50.998;5.864;2023-03-13T12:31:10;99140.28;;;14.76;76.70
48204;BME280;33994;50.998;5.864;2023-03-13T12:34:19;99131.44;;;14.77;76.89
48204;BME280;33994;50.998;5.864;2023-03-13T12:37:29;99140.09;;;14.79;77.03
48204;BME280;33994;50.998;5.864;2023-03-13T12:40:40;99124.03;;;14.84;77.62
48204;BME280;33994;50.998;5.864;2023-03-13T12:43:48;99130.16;;;14.84;77.80
48204;BME280;33994;50.998;5.864;2023-03-13T12:46:59;99126.56;;;14.86;77.89
48204;BME280;33994;50.998;5.864;2023-03-13T12:50:21;99109.84;;;14.87;77.89
48204;BME280;33994;50.998;5.864;2023-03-13T12:53:58;99099.31;;;14.87;76.88
48204;BME280;33994;50.998;5.864;2023-03-13T12:57:20;99095.00;;;14.86;76.56
48204;BME280;33994;50.998;5.864;2023-03-13T13:00:28;99098.56;;;14.84;76.57
48204;BME280;33994;50.998;5.864;2023-03-13T13:03:36;99094.44;;;14.80;76.38
48204;BME280;33994;50.998;5.864;2023-03-13T13:06:56;99096.41;;;14.77;76.41
48204;BME280;33994;50.998;5.864;2023-03-13T13:10:03;99099.19;;;14.74;76.45
48204;BME280;33994;50.998;5.864;2023-03-13T13:13:24;99094.97;;;14.71;76.94
48204;BME280;33994;50.998;5.864;2023-03-13T13:16:30;99094.97;;;14.71;77.40
48204;BME280;33994;50.998;5.864;2023-03-13T13:19:46;99089.63;;;14.73;77.62
48204;BME280;33994;50.998;5.864;2023-03-13T13:22:49;99076.66;;;14.70;77.84
48204;BME280;33994;50.998;5.864;2023-03-13T13:25:54;99063.59;;;14.68;78.16
48204;BME280;33994;50.998;5.864;2023-03-13T13:28:59;99060.00;;;14.69;78.12
48204;BME280;33994;50.998;5.864;2023-03-13T13:32:02;99046.75;;;14.71;77.99
48204;BME280;33994;50.998;5.864;2023-03-13T13:35:25;99053.69;;;14.72;77.97
48204;BME280;33994;50.998;5.864;2023-03-13T13:38:30;99037.84;;;14.73;77.71
48204;BME280;33994;50.998;5.864;2023-03-13T13:41:36;99051.00;;;14.73;77.80
48204;BME280;33994;50.998;5.864;2023-03-13T13:44:57;99030.97;;;14.71;77.16
48204;BME280;33994;50.998;5.864;2023-03-13T13:48:27;99032.03;;;14.68;76.81
48204;BME280;33994;50.998;5.864;2023-03-13T13:51:32;99034.81;;;14.65;77.88
48204;BME280;33994;50.998;5.864;2023-03-13T13:54:54;99038.81;;;14.56;80.07
48204;BME280;33994;50.998;5.864;2023-03-13T13:58:02;99041.88;;;14.49;82.50
48204;BME280;33994;50.998;5.864;2023-03-13T14:01:15;99028.63;;;14.36;84.27
48204;BME280;33994;50.998;5.864;2023-03-13T14:04:22;99035.28;;;14.27;84.82
48204;BME280;33994;50.998;5.864;2023-03-13T14:07:31;99044.47;;;14.20;85.56
48204;BME280;33994;50.998;5.864;2023-03-13T14:10:40;99025.38;;;14.17;85.60
48204;BME280;33994;50.998;5.864;2023-03-13T14:13:44;99022.66;;;14.18;85.44
48204;BME280;33994;50.998;5.864;2023-03-13T14:16:48;99025.09;;;14.21;85.61
48204;BME280;33994;50.998;5.864;2023-03-13T14:19:52;99022.13;;;14.27;84.99
48204;BME280;33994;50.998;5.864;2023-03-13T14:22:58;99018.22;;;14.49;83.83
48204;BME280;33994;50.998;5.864;2023-03-13T14:26:09;99024.91;;;14.54;82.80
48204;BME280;33994;50.998;5.864;2023-03-13T14:29:18;99029.00;;;14.44;82.60
48204;BME280;33994;50.998;5.864;2023-03-13T14:32:24;99019.78;;;14.37;82.57
48204;BME280;33994;50.998;5.864;2023-03-13T14:35:28;98999.97;;;14.31;82.16
48204;BME280;33994;50.998;5.864;2023-03-13T14:38:32;99002.78;;;14.28;81.93
48204;BME280;33994;50.998;5.864;2023-03-13T14:41:40;98991.53;;;14.26;82.03
48204;BME280;33994;50.998;5.864;2023-03-13T14:44:46;98993.28;;;14.26;82.09
48204;BME280;33994;50.998;5.864;2023-03-13T14:47:51;98977.59;;;14.24;81.81
48204;BME280;33994;50.998;5.864;2023-03-13T14:51:00;98976.84;;;14.22;80.93
48204;BME280;33994;50.998;5.864;2023-03-13T14:54:24;98979.56;;;14.21;80.49
48204;BME280;33994;50.998;5.864;2023-03-13T14:57:29;98972.44;;;14.23;80.69
48204;BME280;33994;50.998;5.864;2023-03-13T15:00:36;98974.31;;;14.21;79.93
48204;BME280;33994;50.998;5.864;2023-03-13T15:03:43;98956.84;;;14.20;78.73
48204;BME280;33994;50.998;5.864;2023-03-13T15:06:46;98968.22;;;14.20;78.42
48204;BME280;33994;50.998;5.864;2023-03-13T15:09:51;98967.94;;;14.25;77.94
48204;BME280;33994;50.998;5.864;2023-03-13T15:12:54;98956.41;;;14.27;77.55
48204;BME280;33994;50.998;5.864;2023-03-13T15:15:57;98952.25;;;14.23;76.77
48204;BME280;33994;50.998;5.864;2023-03-13T15:19:00;98937.59;;;14.19;76.05
48204;BME280;33994;50.998;5.864;2023-03-13T15:22:03;98945.38;;;14.21;76.18
48204;BME280;33994;50.998;5.864;2023-03-13T15:25:14;98938.44;;;14.20;75.29
48204;BME280;33994;50.998;5.864;2023-03-13T15:28:19;98928.88;;;14.19;75.54
48204;BME280;33994;50.998;5.864;2023-03-13T15:31:27;98919.09;;;14.21;74.80
48204;BME280;33994;50.998;5.864;2023-03-13T15:34:30;98921.72;;;14.21;74.68
48204;BME280;33994;50.998;5.864;2023-03-13T15:37:34;98908.69;;;14.19;74.18
48204;BME280;33994;50.998;5.864;2023-03-13T15:40:39;98888.50;;;14.20;73.77
48204;BME280;33994;50.998;5.864;2023-03-13T15:43:41;98882.41;;;14.19;73.39
48204;BME280;33994;50.998;5.864;2023-03-13T15:46:44;98874.69;;;14.16;73.09
48204;BME280;33994;50.998;5.864;2023-03-13T15:49:48;98870.38;;;14.15;73.11
48204;BME280;33994;50.998;5.864;2023-03-13T15:52:51;98873.91;;;14.14;73.01
48204;BME280;33994;50.998;5.864;2023-03-13T15:55:57;98870.56;;;14.12;72.81
48204;BME280;33994;50.998;5.864;2023-03-13T15:59:01;98856.66;;;14.10;72.34
48204;BME280;33994;50.998;5.864;2023-03-13T16:02:12;98853.09;;;14.11;71.46
48204;BME280;33994;50.998;5.864;2023-03-13T16:05:18;98835.63;;;14.10;71.85
48204;BME280;33994;50.998;5.864;2023-03-13T16:08:23;98846.13;;;14.10;71.63
48204;BME280;33994;50.998;5.864;2023-03-13T16:11:28;98841.06;;;14.07;71.29
48204;BME280;33994;50.998;5.864;2023-03-13T16:14:31;98823.78;;;14.03;71.25
48204;BME280;33994;50.998;5.864;2023-03-13T16:17:35;98831.94;;;13.98;71.13
48204;BME280;33994;50.998;5.864;2023-03-13T16:20:37;98832.06;;;13.97;71.32
48204;BME280;33994;50.998;5.864;2023-03-13T16:23:41;98824.34;;;13.94;71.38
48204;BME280;33994;50.998;5.864;2023-03-13T16:26:46;98824.34;;;13.94;71.43
48204;BME280;33994;50.998;5.864;2023-03-13T16:29:49;98820.78;;;13.95;71.63